Relevés horaires Semmerzake (Belgique)


Relevés horaires à Semmerzake - Jeudi 30 Avr. 2026
Heure UTC1 Température [°C] Vent [km/h] Hum. [%] Pres.4 [hPa] Visi. [Km] Nébu. [octa] Préc.5 [mm] Cond.
2m. Res. Ros. Dir.2 Vit. Moy. Raf.3
23:00 11.2 11.2 -2.8 ESE 3.7 -- 7.4 37 1024(1.0/3h) >70 -- -- --
22:00 12.2 12.2 -3.3 ESE 3.7 -- 7.4 34 1023.8(1.3/3h) >70 -- -- --
21:00 13.5 13.5 -3.9 NNO 1.9 -- 16.7 30 1023.6(1.4/3h) >70 -- -- --
20:00 16.4 16.4 -5.1 E 5.6 -- 16.7 22 1023(0.7/3h) >70 -- -- --
19:00 17.5 17.5 -4.3 E 7.4 -- 14.8 22 1022.5(0.3/3h) >70 -- -- --
18:00 19.0 19.0 -3.3 E 5.6 -- 18.5 22 1022(-0.3/3h) >70 -- -- --
17:00 20.1 20.1 -3.0 E 7.4 -- 16.7 21 1022.1(-0.6/3h) >70 -- -- --
16:00 20.8 20.8 -1.4 E 9.3 -- 18.5 22 1022.1(-1.2/3h) >70 -- -- --
15:00 20.9 20.9 -0.5 E 7.4 -- 18.5 24 1022.2(-1.4/3h) >70 -- -- --
14:00 20.0 20.0 -1.6 E 9.3 -- 18.5 23 1022.7(-1.5/3h) >70 -- -- --
13:00 19.7 19.7 -1.2 E 7.4 -- 18.5 24 1023.2(-1.2/3h) >70 -- -- --
12:00 18.5 18.5 -1.6 E 9.3 -- 16.7 26 1023.7(-1.0/3h) >70 -- -- --
11:00 17.1 17.1 -2.8 E 9.3 -- 16.7 25 1024.2(-1.1/3h) >70 -- -- --
10:00 16.2 16.2 -1.1 ENE 7.4 -- 14.8 31 1024.7(-0.9/3h) >70 -- -- --
09:00 15.4 15.4 -0.8 E 7.4 -- 14.8 33 1024.9(-0.4/3h) >70 -- -- --
08:00 12.8 12.4 -1.7 E 7.4 -- 14.8 36 1025.5(0.5/3h) >70 -- -- --
07:00 10.6 10.3 -1.8 E 5.6 -- 13.0 42 1025.7(0.8/3h) >70 -- -- --
06:00 9.3 8.3 -1.8 E 7.4 -- 14.8 46 1025.5(0.6/3h) >70 -- -- --
05:00 8.6 8 -2.0 E 5.6 -- 11.1 47 1025(0.3/3h) >70 -- -- --
04:00 9.0 8.4 -2.3 E 5.6 -- 13.0 45 1024.7(0.1/3h) >70 -- -- --
03:00 9.9 9 -2.0 E 7.4 -- 14.8 43 1024.7(0.2/3h) >70 -- -- --
02:00 10.5 9.7 -1.3 ENE 7.4 -- 14.8 44 1024.7(0.3/3h) >70 -- -- --
01:00 10.7 10.4 -0.2 ENE 5.6 -- 13.0 47 1024.7(0.5/3h) >70 -- -- --
00:00 11.8 11.2 -- ENE 7.4 -- 16.7 -- 1024.5(0.7/3h) >70 -- -- --

1 Coordinated Universal Time. Actuellement il est 15:00 locale et 13:00 UTC.

2 Le vent souffle depuis la direction indiquée vers la direction oposée.

3 Les rafales max. sont disponible 40 min après l'heure du relevé.

4 Pour les stations d'altitude (plus de 600m) le géopotentiel du niveau le plus proche de la pression obligatoire est indiqué.

5 Les stations disposant d'un diffuseur peuvent indiquer "trace". Cela signifie que des précipitations ont touchés le sol mais que la quantité est inférieure à 0.1 mm.

Récapitulatif de la journée
Température [°C] Vent [km/h] Ensoleillement4 [h] Precipitations totale5 [mm] Pression [Hpa]
Min1 Max.2 Moy.3 Max. Min Max.
8.3 21.0 0 18.5 0 h 0 min 0 1022.0 1025.7

1 Température minimale relevée entre 18:00 UTC la veille et 18:00 UTC le jour donné.

2 Température maximale relevée entre 06:00 UTC le jour donné et 06:00 UTC le lendemain.

3 Vent moyen de la journée basé sur les relevés horaires.

4 Ensoleillement en heures relevé entre 06:00 UTC la veille et 06:00 UTC le jour donné.

5 Précipitations totales tombées entre 06:00 UTC la jour donné et 06:00 UTC le lendemain.

Graphiques horaires